City Of Vicksburg — WDC2660 — position and weather

sailwx.info

Track history (hours):
 
Tides and Currents Weather Stations Pressure Air Temp Water Temp Dewpoint Dewpoint Depression Visibility Wind Speed Wind Dir Waves Ship Positions

City Of Vicksburg

Owner: Kirby Inland Marine LP, Houston, TX. More information available from US FCC via Universal Licensing System and Coast Guard Vessel Documentation Center.

Last reported at 2017-Oct-10 08:02 UTC. Time now 2017-Oct-19 09:13 UTC.
Position N 32°40' W 091°08'.
Warning: this ship's position is 9 days out of date.

Length 346 m; draft 3 m.

Type: . MMSI: 366996120.

Date/timePositionNaut miles runAvg speedWind from/ knotsBaromVisibWave heightAir tempDewpointWater temp
2017-Oct-10 08:02N 32°40' W 091°08'0 4.8
2017-Oct-10 08:00N 32°40' W 091°08'2 4.8
2017-Oct-10 07:30N 32°38' W 091°09'2 3.0
2017-Oct-10 07:00N 32°36' W 091°09'0 0.0
2017-Oct-10 06:30N 32°36' W 091°09'0 0.0
2017-Oct-10 06:00N 32°36' W 091°09'0 0.2
2017-Oct-10 05:30N 32°36' W 091°09'3 5.2
2017-Oct-10 05:00N 32°34' W 091°07'2 3.3
2017-Oct-10 04:30N 32°33' W 091°06'3 6.1
2017-Oct-10 04:00N 32°30' W 091°07'3 5.5
2017-Oct-10 03:30N 32°28' W 091°06'3 6.0
2017-Oct-10 03:00N 32°26' W 091°03'3 5.5
2017-Oct-10 02:30N 32°25' W 090°60'3 5.3
2017-Oct-10 02:00N 32°22' W 091°00'3 5.4
2017-Oct-10 01:30N 32°21' W 090°57'3 5.5
2017-Oct-10 01:00N 32°20' W 090°54'3 5.4
2017-Oct-10 00:30N 32°18' W 090°55'0 0.0
2017-Oct-10 00:00N 32°18' W 090°55'0 0.1
2017-Oct-09 23:30N 32°18' W 090°55'0 0.2
2017-Oct-09 23:00N 32°18' W 090°56'0 0.1
2017-Oct-09 22:30N 32°18' W 090°56'0 0.1
2017-Oct-09 22:00N 32°18' W 090°56'0 0.1
2017-Oct-09 21:30N 32°18' W 090°56'1 2.1
2017-Oct-09 21:00N 32°17' W 090°56'2 4.6
2017-Oct-09 20:30N 32°15' W 090°58'2 4.7
2017-Oct-09 20:00N 32°13' W 090°59'3 5.7
2017-Oct-09 19:30N 32°10' W 091°00'2 5.0
2017-Oct-09 19:00N 32°08' W 091°00'2 4.2
2017-Oct-09 18:30N 32°07' W 091°03'3 5.3
2017-Oct-09 18:00N 32°08' W 091°06'6 4.1
2017-Oct-09 16:37N 32°03' W 091°03'1 5.3
2017-Oct-09 16:30N 32°02' W 091°04'3 5.1
2017-Oct-09 16:00N 32°00' W 091°05'13 4.1
2017-Oct-09 12:45N 31°51' W 091°17'3 3.3
2017-Oct-09 11:52N 31°51' W 091°21'7 5.3
2017-Oct-09 10:31N 31°44' W 091°23'0 5.2
2017-Oct-09 10:30N 31°44' W 091°23'  
2017-Oct-07 02:31N 31°50' W 091°21'0 9.8
2017-Oct-07 02:30N 31°50' W 091°21'5 8.6
2017-Oct-07 01:54N 31°52' W 091°15'6 8.8
2017-Oct-07 01:16N 31°56' W 091°12'3 9.2
2017-Oct-07 01:00N 31°59' W 091°11'4 8.9
2017-Oct-07 00:30N 31°60' W 091°06'5 8.3
2017-Oct-06 23:51N 32°05' W 091°04'3 8.7
2017-Oct-06 23:30N 32°07' W 091°07'4 8.3
2017-Oct-06 23:00N 32°07' W 091°02'5 9.0
2017-Oct-06 22:30N 32°11' W 090°60'5 9.5
2017-Oct-06 22:00N 32°16' W 090°58'5 9.4
2017-Oct-06 21:30N 32°19' W 090°54'4 7.0
2017-Oct-06 21:00N 32°21' W 090°58'3 6.2
2017-Oct-06 20:30N 32°24' W 090°59'4 7.4
2017-Oct-06 20:00N 32°26' W 091°03'4 8.7
2017-Oct-06 19:30N 32°29' W 091°07'5 9.1
2017-Oct-06 19:00N 32°33' W 091°06'5 9.3
2017-Oct-06 18:30N 32°37' W 091°09'  
Track history (hours):
 
Tides and Currents Weather Stations Pressure Air Temp Water Temp Dewpoint Dewpoint Depression Visibility Wind Speed Wind Dir Waves Ship Positions

City Of Vicksburg

Owner: Kirby Inland Marine LP, Houston, TX. More information available from US FCC via Universal Licensing System and Coast Guard Vessel Documentation Center.

Last reported at 2017-Oct-10 08:02 UTC. Time now 2017-Oct-19 09:13 UTC.
Position N 32°40' W 091°08'.
Warning: this ship's position is 9 days out of date.

Length 346 m; draft 3 m.

Type: . MMSI: 366996120.

Date/timePositionNaut miles runAvg speedWind from/ knotsBaromVisibWave heightAir tempDewpointWater temp
2017-Oct-10 08:02N 32°40' W 091°08'0 4.8
2017-Oct-10 08:00N 32°40' W 091°08'2 4.8
2017-Oct-10 07:30N 32°38' W 091°09'2 3.0
2017-Oct-10 07:00N 32°36' W 091°09'0 0.0
2017-Oct-10 06:30N 32°36' W 091°09'0 0.0
2017-Oct-10 06:00N 32°36' W 091°09'0 0.2
2017-Oct-10 05:30N 32°36' W 091°09'3 5.2
2017-Oct-10 05:00N 32°34' W 091°07'2 3.3
2017-Oct-10 04:30N 32°33' W 091°06'3 6.1
2017-Oct-10 04:00N 32°30' W 091°07'3 5.5
2017-Oct-10 03:30N 32°28' W 091°06'3 6.0
2017-Oct-10 03:00N 32°26' W 091°03'3 5.5
2017-Oct-10 02:30N 32°25' W 090°60'3 5.3
2017-Oct-10 02:00N 32°22' W 091°00'3 5.4
2017-Oct-10 01:30N 32°21' W 090°57'3 5.5
2017-Oct-10 01:00N 32°20' W 090°54'3 5.4
2017-Oct-10 00:30N 32°18' W 090°55'0 0.0
2017-Oct-10 00:00N 32°18' W 090°55'0 0.1
2017-Oct-09 23:30N 32°18' W 090°55'0 0.2
2017-Oct-09 23:00N 32°18' W 090°56'0 0.1
2017-Oct-09 22:30N 32°18' W 090°56'0 0.1
2017-Oct-09 22:00N 32°18' W 090°56'0 0.1
2017-Oct-09 21:30N 32°18' W 090°56'1 2.1
2017-Oct-09 21:00N 32°17' W 090°56'2 4.6
2017-Oct-09 20:30N 32°15' W 090°58'2 4.7
2017-Oct-09 20:00N 32°13' W 090°59'3 5.7
2017-Oct-09 19:30N 32°10' W 091°00'2 5.0
2017-Oct-09 19:00N 32°08' W 091°00'2 4.2
2017-Oct-09 18:30N 32°07' W 091°03'3 5.3
2017-Oct-09 18:00N 32°08' W 091°06'6 4.1
2017-Oct-09 16:37N 32°03' W 091°03'1 5.3
2017-Oct-09 16:30N 32°02' W 091°04'3 5.1
2017-Oct-09 16:00N 32°00' W 091°05'13 4.1
2017-Oct-09 12:45N 31°51' W 091°17'3 3.3
2017-Oct-09 11:52N 31°51' W 091°21'7 5.3
2017-Oct-09 10:31N 31°44' W 091°23'0 5.2
2017-Oct-09 10:30N 31°44' W 091°23'  
2017-Oct-07 02:31N 31°50' W 091°21'0 9.8
2017-Oct-07 02:30N 31°50' W 091°21'5 8.6
2017-Oct-07 01:54N 31°52' W 091°15'6 8.8
2017-Oct-07 01:16N 31°56' W 091°12'3 9.2
2017-Oct-07 01:00N 31°59' W 091°11'4 8.9
2017-Oct-07 00:30N 31°60' W 091°06'5 8.3
2017-Oct-06 23:51N 32°05' W 091°04'3 8.7
2017-Oct-06 23:30N 32°07' W 091°07'4 8.3
2017-Oct-06 23:00N 32°07' W 091°02'5 9.0
2017-Oct-06 22:30N 32°11' W 090°60'5 9.5
2017-Oct-06 22:00N 32°16' W 090°58'5 9.4
2017-Oct-06 21:30N 32°19' W 090°54'4 7.0
2017-Oct-06 21:00N 32°21' W 090°58'3 6.2
2017-Oct-06 20:30N 32°24' W 090°59'4 7.4
2017-Oct-06 20:00N 32°26' W 091°03'4 8.7
2017-Oct-06 19:30N 32°29' W 091°07'5 9.1
2017-Oct-06 19:00N 32°33' W 091°06'5 9.3
2017-Oct-06 18:30N 32°37' W 091°09'  

Dump ship's entire track history